createdAt,value
2022-10-12T00:01:25.195Z,19.70
2022-10-12T00:03:54.982Z,18.45
2022-10-12T00:06:25.096Z,20.10
2022-10-12T00:08:55.461Z,18.90
2022-10-12T00:11:27.151Z,19.02
2022-10-12T00:13:57.140Z,18.45
2022-10-12T00:16:26.611Z,18.58
2022-10-12T00:18:58.427Z,18.77
2022-10-12T00:21:28.181Z,18.70
2022-10-12T00:23:58.962Z,19.52
2022-10-12T00:26:29.175Z,17.48
2022-10-12T00:29:00.012Z,17.58
2022-10-12T00:31:30.166Z,18.52
2022-10-12T00:34:03.192Z,17.92
2022-10-12T00:36:34.007Z,20.45
2022-10-12T00:39:04.546Z,19.23
2022-10-12T00:41:37.954Z,19.05
2022-10-12T00:44:36.384Z,18.50
2022-10-12T00:47:08.515Z,18.48
2022-10-12T00:49:39.000Z,19.13
2022-10-12T00:52:11.620Z,17.00
2022-10-12T00:54:47.631Z,18.70
2022-10-12T00:57:19.747Z,20.00
2022-10-12T00:59:53.185Z,19.10
2022-10-12T01:02:22.887Z,18.33
2022-10-12T01:04:53.452Z,18.65
2022-10-12T01:07:22.276Z,18.55
2022-10-12T01:09:51.195Z,18.42
2022-10-12T01:12:20.890Z,18.25
2022-10-12T01:14:49.390Z,17.10
2022-10-12T01:17:31.214Z,17.98
2022-10-12T01:20:26.760Z,16.27
2022-10-12T01:23:07.310Z,17.00
2022-10-12T01:25:55.073Z,17.95
2022-10-12T01:28:37.355Z,18.05
2022-10-12T01:31:16.873Z,19.85
2022-10-12T01:33:49.650Z,20.30
2022-10-12T01:36:27.230Z,20.08
2022-10-12T01:39:02.012Z,18.05
2022-10-12T01:41:36.171Z,19.38
2022-10-12T01:44:04.620Z,19.27
2022-10-12T01:46:48.048Z,18.45
2022-10-12T01:49:19.090Z,19.30
2022-10-12T01:52:09.670Z,18.73
2022-10-12T01:54:51.258Z,18.63
2022-10-12T01:57:29.838Z,19.75
2022-10-12T02:00:05.217Z,20.15
2022-10-12T02:02:45.977Z,18.50
2022-10-12T02:05:19.943Z,18.95
2022-10-12T02:07:53.439Z,19.85
2022-10-12T02:10:30.177Z,18.48
2022-10-12T02:13:02.880Z,18.23
2022-10-12T02:15:33.240Z,18.15
2022-10-12T02:18:05.566Z,18.70
2022-10-12T02:20:38.008Z,17.83
2022-10-12T02:23:06.584Z,19.80
2022-10-12T02:25:36.252Z,18.20
2022-10-12T02:28:09.687Z,19.08
2022-10-12T02:30:46.283Z,20.58
2022-10-12T02:33:24.771Z,18.38
2022-10-12T02:35:59.976Z,18.95
2022-10-12T02:38:34.020Z,19.45
2022-10-12T02:41:05.825Z,19.45
2022-10-12T02:43:40.416Z,19.23
2022-10-12T02:46:11.562Z,19.65
2022-10-12T02:48:42.983Z,20.77
2022-10-12T02:51:12.438Z,19.85
2022-10-12T02:53:41.951Z,19.55
2022-10-12T02:56:14.205Z,20.90
2022-10-12T02:58:44.798Z,19.10
2022-10-12T03:01:15.021Z,19.90
2022-10-12T03:03:45.424Z,20.30
2022-10-12T03:06:14.703Z,20.92
2022-10-12T03:08:43.060Z,21.95
2022-10-12T03:11:14.743Z,20.40
2022-10-12T03:13:43.313Z,20.83
2022-10-12T03:16:13.434Z,21.92
2022-10-12T03:18:42.302Z,19.17
2022-10-12T03:21:12.711Z,19.23
2022-10-12T03:23:41.059Z,23.73
2022-10-12T03:26:10.146Z,22.73
2022-10-12T03:28:38.824Z,21.83
2022-10-12T03:31:07.313Z,19.90
2022-10-12T03:33:35.646Z,21.70
2022-10-12T03:36:05.154Z,21.67
2022-10-12T03:38:34.892Z,21.02
2022-10-12T03:41:06.705Z,20.80
2022-10-12T03:43:35.954Z,19.10
2022-10-12T03:46:04.331Z,19.63
2022-10-12T03:48:32.920Z,19.42
2022-10-12T03:51:01.318Z,20.88
2022-10-12T03:53:29.672Z,20.73
2022-10-12T03:55:59.471Z,20.70
2022-10-12T03:58:28.286Z,17.98
2022-10-12T04:00:57.032Z,19.45
2022-10-12T04:03:25.865Z,18.92
2022-10-12T04:05:55.621Z,18.13
2022-10-12T04:08:26.770Z,18.65
2022-10-12T04:10:56.115Z,19.00
2022-10-12T04:13:25.977Z,18.25
2022-10-12T04:15:54.348Z,17.55
2022-10-12T04:18:23.115Z,16.90
2022-10-12T04:20:51.696Z,18.33
2022-10-12T04:23:20.445Z,18.92
2022-10-12T04:25:48.834Z,19.23
2022-10-12T04:28:17.869Z,19.15
2022-10-12T04:30:48.259Z,18.20
2022-10-12T04:33:16.700Z,17.15
2022-10-12T04:35:45.237Z,17.73
2022-10-12T04:38:14.030Z,17.40
2022-10-12T04:40:43.067Z,17.25
2022-10-12T04:43:11.427Z,17.70
2022-10-12T04:45:40.498Z,19.63
2022-10-12T04:48:10.449Z,18.40
2022-10-12T04:50:39.507Z,19.77
2022-10-12T04:53:07.874Z,19.05
2022-10-12T04:55:39.239Z,21.00
2022-10-12T04:58:07.707Z,20.25
2022-10-12T05:00:36.370Z,18.08
2022-10-12T05:03:06.315Z,19.20
2022-10-12T05:05:36.573Z,19.05
2022-10-12T05:08:05.754Z,21.75
2022-10-12T05:10:34.595Z,19.55
2022-10-12T05:13:03.319Z,18.45
2022-10-12T05:15:31.784Z,19.13
2022-10-12T05:18:00.976Z,17.23
2022-10-12T05:20:29.631Z,16.63
2022-10-12T05:23:00.026Z,17.23
2022-10-12T05:25:29.457Z,17.83
2022-10-12T05:27:58.854Z,17.40
2022-10-12T05:30:27.618Z,16.45
2022-10-12T05:32:56.190Z,16.83
2022-10-12T05:35:25.217Z,16.50
2022-10-12T05:37:53.748Z,14.95
2022-10-12T05:40:23.933Z,14.60
2022-10-12T05:42:52.416Z,17.20
2022-10-12T05:45:20.927Z,15.23
2022-10-12T05:47:49.356Z,14.57
2022-10-12T05:50:18.419Z,17.88
2022-10-12T05:52:47.431Z,17.85
2022-10-12T05:55:16.632Z,17.92
2022-10-12T05:57:51.612Z,16.75
2022-10-12T06:00:21.650Z,18.25
2022-10-12T06:02:50.198Z,16.23
2022-10-12T06:05:18.867Z,17.20
2022-10-12T06:07:47.236Z,17.67
2022-10-12T06:10:16.399Z,18.92
2022-10-12T06:12:46.084Z,17.95
2022-10-12T06:15:15.463Z,18.15
2022-10-12T06:17:43.864Z,16.65
2022-10-12T06:20:13.258Z,17.80
2022-10-12T06:22:41.770Z,17.92
2022-10-12T06:25:10.965Z,17.15
2022-10-12T06:27:39.371Z,17.70
2022-10-12T06:30:10.621Z,16.17
2022-10-12T06:32:40.086Z,17.38
2022-10-12T06:35:09.900Z,17.95
2022-10-12T06:37:49.529Z,25.02
2022-10-12T06:40:19.933Z,19.13
2022-10-12T06:42:53.739Z,18.42
2022-10-12T06:45:25.927Z,18.40
2022-10-12T06:47:54.616Z,18.10
2022-10-12T06:50:22.985Z,19.30
2022-10-12T06:52:51.447Z,18.73
2022-10-12T06:55:20.684Z,18.48
2022-10-12T06:57:49.117Z,17.70
2022-10-12T07:00:18.671Z,15.60
2022-10-12T07:02:50.279Z,16.67
2022-10-12T07:05:19.092Z,21.08
2022-10-12T07:07:47.866Z,19.27
2022-10-12T07:10:16.656Z,19.40
2022-10-12T07:12:45.058Z,19.55
2022-10-12T07:15:13.539Z,18.83
2022-10-12T07:17:42.360Z,17.42
2022-10-12T07:20:12.618Z,17.98
2022-10-12T07:22:41.853Z,15.75
2022-10-12T07:25:10.838Z,16.55
2022-10-12T07:27:39.662Z,18.42
2022-10-12T07:30:10.522Z,16.25
2022-10-12T07:32:38.901Z,18.15
2022-10-12T07:35:08.364Z,17.35
2022-10-12T07:37:38.558Z,16.52
2022-10-12T07:40:09.629Z,15.90
2022-10-12T07:42:53.719Z,18.02
2022-10-12T07:45:28.630Z,15.63
2022-10-12T07:47:57.243Z,16.55
2022-10-12T07:50:26.601Z,16.25
2022-10-12T07:52:56.316Z,16.13
2022-10-12T07:55:25.390Z,16.42
2022-10-12T07:57:54.165Z,15.05
2022-10-12T08:00:22.816Z,15.48
2022-10-12T08:02:51.165Z,15.65
2022-10-12T08:05:21.250Z,16.25
2022-10-12T08:07:49.728Z,16.33
2022-10-12T08:10:20.476Z,16.00
2022-10-12T08:12:52.083Z,15.07
2022-10-12T08:15:20.742Z,15.30
2022-10-12T08:17:50.016Z,15.73
2022-10-12T08:20:19.114Z,15.90
2022-10-12T08:22:48.177Z,15.13
2022-10-12T08:25:16.775Z,16.02
2022-10-12T08:27:47.077Z,20.63
2022-10-12T08:30:15.932Z,22.02
2022-10-12T08:32:44.317Z,20.98
2022-10-12T08:35:12.788Z,20.33
2022-10-12T08:37:42.293Z,20.08
2022-10-12T08:40:15.697Z,19.52
2022-10-12T08:42:57.079Z,19.40
2022-10-12T08:45:48.679Z,18.25
2022-10-12T08:48:20.194Z,19.23
2022-10-12T08:50:54.770Z,20.58
2022-10-12T08:53:27.032Z,20.45
2022-10-12T08:55:56.815Z,20.45
2022-10-12T08:58:32.253Z,20.02
2022-10-12T09:01:16.548Z,19.55
2022-10-12T09:03:56.640Z,19.05
2022-10-12T09:06:30.262Z,20.35
2022-10-12T09:09:10.910Z,20.83
2022-10-12T09:11:51.802Z,19.23
2022-10-12T09:14:26.120Z,19.83
2022-10-12T09:16:57.454Z,21.58
2022-10-12T09:19:30.803Z,18.85
2022-10-12T09:21:59.384Z,21.23
2022-10-12T09:24:32.664Z,20.80
2022-10-12T09:27:05.490Z,20.10
2022-10-12T09:29:35.560Z,20.40
2022-10-12T09:32:21.295Z,20.90
2022-10-12T09:34:50.478Z,20.67
2022-10-12T09:37:23.084Z,20.10
2022-10-12T09:39:52.305Z,20.70
2022-10-12T09:42:21.559Z,20.63
2022-10-12T09:44:56.698Z,19.85
2022-10-12T09:47:28.847Z,19.45
2022-10-12T09:50:01.093Z,20.10
2022-10-12T09:52:33.097Z,19.02
2022-10-12T09:55:05.525Z,19.00
2022-10-12T09:57:37.309Z,19.30
2022-10-12T10:00:24.358Z,20.15
2022-10-12T10:02:54.511Z,18.75
2022-10-12T10:05:28.613Z,18.98
2022-10-12T10:08:18.610Z,17.85
2022-10-12T10:10:51.938Z,18.42
2022-10-12T10:13:21.963Z,19.30
2022-10-12T10:16:02.649Z,19.77
2022-10-12T10:18:35.800Z,17.92
2022-10-12T10:21:07.535Z,18.77
2022-10-12T10:23:40.648Z,17.77
2022-10-12T10:26:12.275Z,18.77
2022-10-12T10:28:42.183Z,18.55
2022-10-12T10:31:23.608Z,18.33
2022-10-12T10:34:12.650Z,18.58
2022-10-12T10:36:46.401Z,20.25
2022-10-12T10:39:21.808Z,18.92
2022-10-12T10:41:51.740Z,18.50
2022-10-12T10:44:26.205Z,18.33
2022-10-12T10:46:58.191Z,17.83
2022-10-12T10:49:35.020Z,18.20
2022-10-12T10:52:05.082Z,19.13
2022-10-12T10:54:36.484Z,17.58
2022-10-12T10:57:11.144Z,16.15
2022-10-12T10:59:46.547Z,17.95
2022-10-12T11:02:28.109Z,19.65
2022-10-12T11:05:04.474Z,17.20
2022-10-12T11:07:38.611Z,17.23
2022-10-12T11:10:21.632Z,17.33
2022-10-12T11:12:55.927Z,17.85
2022-10-12T11:15:28.282Z,16.73
2022-10-12T11:18:08.822Z,16.67
2022-10-12T11:20:51.399Z,18.02
2022-10-12T11:23:28.462Z,18.08
2022-10-12T11:26:05.204Z,18.48
2022-10-12T11:28:34.730Z,17.13
2022-10-12T11:31:03.643Z,17.50
2022-10-12T11:33:39.464Z,17.10
2022-10-12T11:36:11.278Z,18.35
2022-10-12T11:38:44.099Z,18.55
2022-10-12T11:41:35.074Z,20.08
2022-10-12T11:44:11.898Z,18.88
2022-10-12T11:46:48.421Z,19.33
2022-10-12T11:49:27.777Z,17.83
2022-10-12T11:51:59.188Z,17.25
2022-10-12T11:54:34.025Z,16.90
2022-10-12T11:57:08.791Z,17.88
2022-10-12T11:59:42.619Z,17.08
2022-10-12T12:02:18.815Z,16.58
2022-10-12T12:04:50.422Z,17.25
2022-10-12T12:07:48.318Z,18.10
2022-10-12T12:10:59.782Z,16.55
2022-10-12T12:13:28.547Z,17.42
2022-10-12T12:16:34.990Z,17.90
2022-10-12T12:19:18.747Z,16.45
2022-10-12T12:22:29.027Z,16.80
2022-10-12T12:25:15.114Z,16.23
2022-10-12T12:27:46.613Z,16.13
2022-10-12T12:30:37.340Z,16.58
2022-10-12T12:33:25.776Z,16.75
2022-10-12T12:35:58.014Z,16.85
2022-10-12T12:38:34.192Z,16.83
2022-10-12T12:41:10.390Z,15.77
2022-10-12T12:44:04.098Z,16.90
2022-10-12T12:50:01.583Z,17.27
2022-10-12T12:52:34.024Z,17.05
2022-10-12T12:55:41.636Z,17.50
2022-10-12T12:58:37.544Z,17.85
2022-10-12T13:01:25.986Z,16.50
2022-10-12T13:04:19.023Z,18.17
2022-10-12T13:07:30.655Z,16.02
2022-10-12T13:10:11.362Z,16.33
2022-10-12T13:13:09.743Z,16.52
2022-10-12T13:15:48.328Z,16.02
2022-10-12T13:18:47.554Z,15.73
2022-10-12T13:21:20.715Z,15.80
2022-10-12T13:23:51.233Z,15.93
2022-10-12T13:26:24.937Z,15.05
2022-10-12T13:28:56.246Z,16.25
2022-10-12T13:31:29.132Z,16.10
2022-10-12T13:34:10.633Z,14.55
2022-10-12T13:36:50.284Z,15.00
2022-10-12T13:39:21.510Z,15.23
2022-10-12T13:41:53.369Z,15.60
2022-10-12T13:44:27.610Z,15.90
2022-10-12T13:46:59.274Z,16.33
2022-10-12T13:49:29.805Z,15.65
2022-10-12T13:52:00.600Z,15.18
2022-10-12T13:54:38.190Z,15.63
2022-10-12T13:57:19.160Z,14.95
2022-10-12T13:59:53.617Z,16.00
2022-10-12T14:02:24.922Z,14.63
2022-10-12T14:04:56.107Z,15.50
2022-10-12T14:07:27.442Z,16.08
2022-10-12T14:10:07.031Z,14.85
2022-10-12T14:12:37.432Z,15.98
2022-10-12T14:15:09.165Z,15.93
2022-10-12T14:17:44.542Z,13.70
2022-10-12T14:20:18.672Z,17.08
2022-10-12T14:22:50.197Z,16.98
2022-10-12T14:25:21.395Z,15.27
2022-10-12T14:27:56.241Z,16.52
2022-10-12T14:30:29.941Z,16.27
2022-10-12T14:33:11.866Z,16.33
2022-10-12T14:35:42.156Z,15.20
2022-10-12T14:38:38.173Z,15.45
2022-10-12T14:41:35.840Z,14.85
2022-10-12T14:44:10.626Z,15.02
2022-10-12T14:46:43.713Z,14.70
2022-10-12T14:49:18.449Z,14.52
2022-10-12T14:51:47.774Z,13.85
2022-10-12T14:54:16.497Z,15.30
2022-10-12T14:56:47.499Z,13.55
2022-10-12T14:59:15.976Z,14.70
2022-10-12T15:01:47.771Z,14.15
2022-10-12T15:04:20.090Z,14.27
2022-10-12T15:06:51.100Z,13.45
2022-10-12T15:09:20.282Z,15.32
2022-10-12T15:11:48.648Z,14.25
2022-10-12T15:14:17.507Z,16.20
2022-10-12T15:16:48.307Z,15.23
2022-10-12T15:19:16.710Z,14.63
2022-10-12T15:21:45.165Z,15.63
2022-10-12T15:24:16.301Z,15.18
2022-10-12T15:26:44.695Z,14.93
2022-10-12T15:29:13.416Z,14.93
2022-10-12T15:31:41.782Z,14.70
2022-10-12T15:34:14.696Z,15.38
2022-10-12T15:36:43.397Z,15.77
2022-10-12T15:39:12.042Z,16.50
2022-10-12T15:41:40.850Z,16.55
2022-10-12T15:44:12.480Z,16.80
2022-10-12T15:46:42.010Z,17.17
2022-10-12T15:49:13.379Z,17.70
2022-10-12T15:51:48.292Z,16.17
2022-10-12T15:54:17.452Z,16.77
2022-10-12T15:56:46.921Z,17.13
2022-10-12T15:59:15.847Z,16.05
2022-10-12T16:01:44.841Z,16.25
2022-10-12T16:04:16.874Z,17.25
2022-10-12T16:06:46.970Z,16.77
2022-10-12T16:09:15.313Z,16.55
2022-10-12T16:11:43.775Z,16.77
2022-10-12T16:14:15.180Z,17.30
2022-10-12T16:16:43.629Z,16.50
2022-10-12T16:19:11.995Z,16.95
2022-10-12T16:21:42.053Z,15.98
2022-10-12T16:24:12.995Z,16.38
2022-10-12T16:26:44.865Z,16.48
2022-10-12T16:29:14.577Z,16.60
2022-10-12T16:34:16.755Z,17.85
2022-10-12T16:36:46.884Z,17.27
2022-10-12T16:39:15.250Z,15.40
2022-10-12T16:41:44.171Z,17.73
2022-10-12T16:44:12.901Z,18.15
2022-10-12T16:46:41.745Z,17.73
2022-10-12T16:49:10.181Z,19.00
2022-10-12T16:51:41.589Z,17.85
2022-10-12T16:54:11.686Z,19.13
2022-10-12T16:56:40.058Z,16.13
2022-10-12T16:59:08.944Z,16.92
2022-10-12T17:01:37.344Z,17.25
2022-10-12T17:04:06.681Z,18.98
2022-10-12T17:06:35.082Z,19.98
2022-10-12T17:09:04.564Z,22.90
2022-10-12T17:11:38.831Z,21.95
2022-10-12T17:14:08.661Z,24.88
2022-10-12T17:16:52.683Z,19.27
2022-10-12T17:19:22.737Z,18.63
2022-10-12T17:21:52.566Z,21.23
2022-10-12T17:24:24.676Z,21.15
2022-10-12T17:26:55.144Z,20.35
2022-10-12T17:29:25.539Z,26.83
2022-10-12T17:32:00.487Z,20.70
2022-10-12T17:34:41.226Z,19.27
2022-10-12T17:37:12.625Z,21.90
2022-10-12T17:39:43.651Z,24.20
2022-10-12T17:42:14.033Z,21.85
2022-10-12T17:44:42.623Z,19.83
2022-10-12T17:47:11.414Z,21.45
2022-10-12T17:49:42.887Z,22.10
2022-10-12T17:52:14.337Z,29.10
2022-10-12T17:54:43.203Z,25.52
2022-10-12T17:57:12.891Z,28.30
2022-10-12T17:59:41.272Z,32.03
2022-10-12T18:02:11.399Z,28.83
2022-10-12T18:04:39.748Z,28.30
2022-10-12T18:07:08.585Z,25.27
2022-10-12T18:09:38.055Z,22.60
2022-10-12T18:12:06.801Z,20.63
2022-10-12T18:14:36.565Z,20.10
2022-10-12T18:17:05.352Z,20.27
2022-10-12T18:19:33.965Z,18.80
2022-10-12T18:22:02.427Z,19.15
2022-10-12T18:24:31.489Z,21.15
2022-10-12T18:27:00.238Z,21.23
2022-10-12T18:29:28.672Z,18.65
2022-10-12T18:32:02.168Z,23.75
2022-10-12T18:34:35.670Z,22.33
2022-10-12T18:37:05.157Z,20.38
2022-10-12T18:39:33.667Z,21.20
2022-10-12T18:42:02.533Z,20.25
2022-10-12T18:44:37.502Z,19.05
2022-10-12T18:47:07.396Z,18.75
2022-10-12T18:49:38.042Z,21.00
2022-10-12T18:52:06.576Z,19.80
2022-10-12T18:54:36.027Z,20.10
2022-10-12T18:57:04.610Z,20.25
2022-10-12T18:59:33.507Z,22.25
2022-10-12T19:02:02.506Z,19.73
2022-10-12T19:04:32.282Z,20.02
2022-10-12T19:07:00.970Z,19.02
2022-10-12T19:09:30.065Z,19.05
2022-10-12T19:11:58.890Z,20.92
2022-10-12T19:14:27.400Z,20.52
2022-10-12T19:16:55.875Z,18.80
2022-10-12T19:19:25.024Z,19.65
2022-10-12T19:21:54.958Z,19.33
2022-10-12T19:24:23.599Z,19.92
2022-10-12T19:26:52.671Z,20.80
2022-10-12T19:29:23.531Z,22.88
2022-10-12T19:31:53.827Z,23.92
2022-10-12T19:34:23.620Z,22.55
2022-10-12T19:36:54.331Z,20.20
2022-10-12T19:39:24.345Z,20.23
2022-10-12T19:41:54.223Z,20.98
2022-10-12T19:44:26.046Z,21.52
2022-10-12T19:46:54.419Z,19.27
2022-10-12T19:49:23.453Z,20.77
2022-10-12T19:51:56.004Z,20.10
2022-10-12T19:54:24.530Z,18.15
2022-10-12T19:56:56.712Z,19.63
2022-10-12T19:59:27.779Z,18.60
2022-10-12T20:01:56.979Z,21.05
2022-10-12T20:04:25.760Z,20.35
2022-10-12T20:06:55.559Z,19.83
2022-10-12T20:09:23.992Z,21.15
2022-10-12T20:11:52.735Z,21.00
2022-10-12T20:14:21.634Z,19.67
2022-10-12T20:16:50.414Z,21.20
2022-10-12T20:19:19.245Z,20.45
2022-10-12T20:21:47.632Z,20.85
2022-10-12T20:24:17.998Z,19.85
2022-10-12T20:26:46.577Z,22.23
2022-10-12T20:29:14.956Z,22.65
2022-10-12T20:31:44.470Z,23.25
2022-10-12T20:34:12.923Z,29.98
2022-10-12T20:36:42.051Z,24.88
2022-10-12T20:39:10.650Z,21.27
2022-10-12T20:41:40.985Z,22.58
2022-10-12T20:44:11.147Z,22.45
2022-10-12T20:46:39.619Z,20.50
2022-10-12T20:49:08.761Z,22.10
2022-10-12T20:51:39.973Z,25.10
2022-10-12T20:54:09.182Z,24.80
2022-10-12T20:56:44.122Z,20.63
2022-10-12T20:59:12.622Z,21.13
2022-10-12T21:01:42.357Z,21.15
2022-10-12T21:04:11.200Z,21.63
2022-10-12T21:06:41.572Z,22.20
2022-10-12T21:09:14.727Z,24.65
2022-10-12T21:11:44.527Z,19.88
2022-10-12T21:14:13.986Z,20.85
2022-10-12T21:16:42.620Z,19.52
2022-10-12T21:19:15.459Z,19.77
2022-10-12T21:21:43.967Z,21.33
2022-10-12T21:24:13.588Z,24.52
2022-10-12T21:26:42.440Z,22.60
2022-10-12T21:29:12.351Z,21.77
2022-10-12T21:31:40.932Z,22.48
2022-10-12T21:34:11.385Z,22.98
2022-10-12T21:36:40.750Z,29.00
2022-10-12T21:39:11.882Z,22.42
2022-10-12T21:41:40.943Z,23.75
2022-10-12T21:44:09.432Z,22.45
2022-10-12T21:46:39.713Z,23.55
2022-10-12T21:49:09.355Z,25.08
2022-10-12T21:51:38.652Z,25.75
2022-10-12T21:54:07.794Z,25.52
2022-10-12T21:56:38.930Z,36.30
2022-10-12T21:59:07.989Z,30.95
2022-10-12T22:01:41.967Z,25.77
2022-10-12T22:04:13.702Z,27.88
2022-10-12T22:06:43.401Z,29.85
2022-10-12T22:09:17.047Z,24.85
2022-10-12T22:11:46.955Z,26.27
2022-10-12T22:14:18.193Z,26.33
2022-10-12T22:16:48.679Z,24.77
2022-10-12T22:19:19.479Z,23.63
2022-10-12T22:21:51.035Z,21.90
2022-10-12T22:24:22.293Z,22.05
2022-10-12T22:26:50.901Z,24.65
2022-10-12T22:29:19.325Z,26.08
2022-10-12T22:31:49.136Z,25.40
2022-10-12T22:34:17.554Z,22.98
2022-10-12T22:36:46.657Z,21.52
2022-10-12T22:39:15.996Z,23.80
2022-10-12T22:41:45.987Z,22.60
2022-10-12T22:44:14.409Z,24.80
2022-10-12T22:46:42.831Z,21.60
2022-10-12T22:49:12.878Z,21.90
2022-10-12T22:51:41.766Z,21.98
2022-10-12T22:54:11.055Z,22.52
2022-10-12T22:56:42.989Z,23.92
2022-10-12T22:59:14.156Z,21.88
2022-10-12T23:01:42.688Z,24.75
2022-10-12T23:04:12.595Z,24.52
2022-10-12T23:06:41.115Z,24.98
2022-10-12T23:09:09.842Z,25.52
2022-10-12T23:11:38.584Z,25.08
2022-10-12T23:14:06.986Z,24.55
2022-10-12T23:16:35.422Z,24.90
2022-10-12T23:19:06.824Z,24.95
2022-10-12T23:21:37.151Z,22.77
2022-10-12T23:24:06.408Z,22.35
2022-10-12T23:26:35.968Z,22.90
2022-10-12T23:29:04.951Z,22.55
2022-10-12T23:31:35.929Z,28.10
2022-10-12T23:34:06.567Z,23.83
2022-10-12T23:36:37.135Z,20.98
2022-10-12T23:39:06.493Z,23.00
2022-10-12T23:41:35.640Z,24.98
2022-10-12T23:44:04.214Z,23.15
2022-10-12T23:46:33.743Z,22.15
2022-10-12T23:49:02.205Z,20.00
2022-10-12T23:51:31.299Z,21.00
2022-10-12T23:54:01.664Z,19.00
2022-10-12T23:56:30.171Z,21.35
2022-10-12T23:59:02.864Z,22.13
